sensor_id;sensor_type;location;lat;lon;timestamp;P1;durP1;ratioP1;P2;durP2;ratioP2
55732;SDS011;41637;52.364;9.910;2023-02-28T00:00:55;9.80;;;5.20;;
55732;SDS011;41637;52.364;9.910;2023-02-28T00:03:22;8.80;;;5.20;;
55732;SDS011;41637;52.364;9.910;2023-02-28T00:05:49;11.20;;;5.80;;
55732;SDS011;41637;52.364;9.910;2023-02-28T00:08:18;10.40;;;5.60;;
55732;SDS011;41637;52.364;9.910;2023-02-28T00:10:45;11.50;;;6.00;;
55732;SDS011;41637;52.364;9.910;2023-02-28T00:13:15;8.20;;;5.40;;
55732;SDS011;41637;52.364;9.910;2023-02-28T00:15:45;10.40;;;5.30;;
55732;SDS011;41637;52.364;9.910;2023-02-28T00:18:12;10.60;;;5.40;;
55732;SDS011;41637;52.364;9.910;2023-02-28T00:20:39;9.80;;;5.50;;
55732;SDS011;41637;52.364;9.910;2023-02-28T00:23:06;11.40;;;5.40;;
55732;SDS011;41637;52.364;9.910;2023-02-28T00:25:33;12.30;;;4.90;;
55732;SDS011;41637;52.364;9.910;2023-02-28T00:28:00;9.90;;;4.50;;
55732;SDS011;41637;52.364;9.910;2023-02-28T00:30:27;11.10;;;4.20;;
55732;SDS011;41637;52.364;9.910;2023-02-28T00:32:54;8.10;;;4.70;;
55732;SDS011;41637;52.364;9.910;2023-02-28T00:35:22;7.40;;;4.90;;
55732;SDS011;41637;52.364;9.910;2023-02-28T00:37:50;10.60;;;4.80;;
55732;SDS011;41637;52.364;9.910;2023-02-28T00:40:16;8.80;;;4.70;;
55732;SDS011;41637;52.364;9.910;2023-02-28T00:42:43;8.40;;;4.70;;
55732;SDS011;41637;52.364;9.910;2023-02-28T00:45:10;7.60;;;4.20;;
55732;SDS011;41637;52.364;9.910;2023-02-28T00:47:37;7.80;;;4.40;;
55732;SDS011;41637;52.364;9.910;2023-02-28T00:50:05;11.60;;;4.90;;
55732;SDS011;41637;52.364;9.910;2023-02-28T00:52:32;9.00;;;4.60;;
55732;SDS011;41637;52.364;9.910;2023-02-28T00:54:59;8.40;;;4.70;;
55732;SDS011;41637;52.364;9.910;2023-02-28T00:57:26;8.70;;;4.60;;
55732;SDS011;41637;52.364;9.910;2023-02-28T00:59:53;8.60;;;4.90;;
55732;SDS011;41637;52.364;9.910;2023-02-28T01:02:23;9.20;;;4.90;;
55732;SDS011;41637;52.364;9.910;2023-02-28T01:04:50;6.90;;;4.50;;
55732;SDS011;41637;52.364;9.910;2023-02-28T01:07:17;8.40;;;4.50;;
55732;SDS011;41637;52.364;9.910;2023-02-28T01:09:44;8.40;;;4.10;;
55732;SDS011;41637;52.364;9.910;2023-02-28T01:12:11;9.70;;;4.90;;
55732;SDS011;41637;52.364;9.910;2023-02-28T01:14:38;7.50;;;4.30;;
55732;SDS011;41637;52.364;9.910;2023-02-28T01:17:05;9.40;;;5.00;;
55732;SDS011;41637;52.364;9.910;2023-02-28T01:19:32;7.60;;;4.70;;
55732;SDS011;41637;52.364;9.910;2023-02-28T01:22:02;10.40;;;4.90;;
55732;SDS011;41637;52.364;9.910;2023-02-28T01:24:31;9.20;;;5.00;;
55732;SDS011;41637;52.364;9.910;2023-02-28T01:26:59;8.10;;;4.50;;
55732;SDS011;41637;52.364;9.910;2023-02-28T01:29:26;8.90;;;5.00;;
55732;SDS011;41637;52.364;9.910;2023-02-28T01:31:53;11.30;;;4.80;;
55732;SDS011;41637;52.364;9.910;2023-02-28T01:34:20;9.30;;;5.30;;
55732;SDS011;41637;52.364;9.910;2023-02-28T01:36:47;10.00;;;5.30;;
55732;SDS011;41637;52.364;9.910;2023-02-28T01:39:14;9.60;;;5.20;;
55732;SDS011;41637;52.364;9.910;2023-02-28T01:41:41;8.60;;;5.00;;
55732;SDS011;41637;52.364;9.910;2023-02-28T01:47:23;8.20;;;4.70;;
55732;SDS011;41637;52.364;9.910;2023-02-28T01:49:56;8.60;;;4.70;;
55732;SDS011;41637;52.364;9.910;2023-02-28T01:52:23;12.10;;;5.30;;
55732;SDS011;41637;52.364;9.910;2023-02-28T01:54:52;7.30;;;4.00;;
55732;SDS011;41637;52.364;9.910;2023-02-28T01:57:23;8.70;;;4.60;;
55732;SDS011;41637;52.364;9.910;2023-02-28T01:59:59;11.00;;;4.90;;
55732;SDS011;41637;52.364;9.910;2023-02-28T02:02:33;9.40;;;4.60;;
55732;SDS011;41637;52.364;9.910;2023-02-28T02:05:03;8.90;;;5.10;;
55732;SDS011;41637;52.364;9.910;2023-02-28T02:07:37;10.10;;;5.10;;
55732;SDS011;41637;52.364;9.910;2023-02-28T02:10:19;8.40;;;5.00;;
55732;SDS011;41637;52.364;9.910;2023-02-28T02:13:34;9.20;;;5.00;;
55732;SDS011;41637;52.364;9.910;2023-02-28T02:19:14;9.90;;;5.10;;
55732;SDS011;41637;52.364;9.910;2023-02-28T02:42:50;8.60;;;4.80;;
55732;SDS011;41637;52.364;9.910;2023-02-28T02:48:30;9.00;;;4.90;;
55732;SDS011;41637;52.364;9.910;2023-02-28T02:51:00;7.00;;;4.60;;
55732;SDS011;41637;52.364;9.910;2023-02-28T02:53:32;8.70;;;4.50;;
55732;SDS011;41637;52.364;9.910;2023-02-28T02:56:03;6.60;;;4.30;;
55732;SDS011;41637;52.364;9.910;2023-02-28T02:58:32;7.50;;;4.90;;
55732;SDS011;41637;52.364;9.910;2023-02-28T03:01:08;9.80;;;4.80;;
55732;SDS011;41637;52.364;9.910;2023-02-28T03:03:40;7.80;;;4.70;;
55732;SDS011;41637;52.364;9.910;2023-02-28T03:06:07;8.30;;;4.80;;
55732;SDS011;41637;52.364;9.910;2023-02-28T03:08:36;7.10;;;4.50;;
55732;SDS011;41637;52.364;9.910;2023-02-28T03:11:05;7.80;;;4.90;;
55732;SDS011;41637;52.364;9.910;2023-02-28T03:13:42;10.30;;;4.90;;
55732;SDS011;41637;52.364;9.910;2023-02-28T03:16:32;8.00;;;4.80;;
55732;SDS011;41637;52.364;9.910;2023-02-28T03:27:41;8.70;;;5.30;;
55732;SDS011;41637;52.364;9.910;2023-02-28T03:33:10;8.70;;;5.40;;
55732;SDS011;41637;52.364;9.910;2023-02-28T03:35:42;10.00;;;5.30;;
55732;SDS011;41637;52.364;9.910;2023-02-28T03:38:16;8.40;;;5.50;;
55732;SDS011;41637;52.364;9.910;2023-02-28T03:40:49;7.90;;;4.90;;
55732;SDS011;41637;52.364;9.910;2023-02-28T03:43:28;7.30;;;4.90;;
55732;SDS011;41637;52.364;9.910;2023-02-28T03:45:59;8.30;;;4.90;;
55732;SDS011;41637;52.364;9.910;2023-02-28T03:48:49;10.30;;;5.90;;
55732;SDS011;41637;52.364;9.910;2023-02-28T03:51:22;9.70;;;5.30;;
55732;SDS011;41637;52.364;9.910;2023-02-28T03:53:51;9.90;;;5.40;;
55732;SDS011;41637;52.364;9.910;2023-02-28T03:56:22;7.80;;;4.90;;
55732;SDS011;41637;52.364;9.910;2023-02-28T03:58:58;8.10;;;4.90;;
55732;SDS011;41637;52.364;9.910;2023-02-28T04:01:35;8.30;;;5.30;;
55732;SDS011;41637;52.364;9.910;2023-02-28T04:04:04;9.70;;;5.40;;
55732;SDS011;41637;52.364;9.910;2023-02-28T04:06:32;8.40;;;5.40;;
55732;SDS011;41637;52.364;9.910;2023-02-28T04:09:00;9.90;;;5.30;;
55732;SDS011;41637;52.364;9.910;2023-02-28T04:11:42;8.00;;;4.90;;
55732;SDS011;41637;52.364;9.910;2023-02-28T04:14:11;9.10;;;5.50;;
55732;SDS011;41637;52.364;9.910;2023-02-28T04:16:43;10.40;;;5.10;;
55732;SDS011;41637;52.364;9.910;2023-02-28T04:19:11;11.40;;;5.60;;
55732;SDS011;41637;52.364;9.910;2023-02-28T04:21:49;14.00;;;6.20;;
55732;SDS011;41637;52.364;9.910;2023-02-28T04:24:21;10.80;;;5.80;;
55732;SDS011;41637;52.364;9.910;2023-02-28T04:26:53;10.90;;;5.70;;
55732;SDS011;41637;52.364;9.910;2023-02-28T04:29:26;10.40;;;6.00;;
55732;SDS011;41637;52.364;9.910;2023-02-28T04:31:54;12.00;;;6.60;;
55732;SDS011;41637;52.364;9.910;2023-02-28T04:34:27;12.70;;;6.80;;
55732;SDS011;41637;52.364;9.910;2023-02-28T04:36:56;13.00;;;6.60;;
55732;SDS011;41637;52.364;9.910;2023-02-28T04:39:40;11.60;;;6.60;;
55732;SDS011;41637;52.364;9.910;2023-02-28T04:42:07;9.90;;;6.10;;
55732;SDS011;41637;52.364;9.910;2023-02-28T04:44:34;9.70;;;5.80;;
55732;SDS011;41637;52.364;9.910;2023-02-28T04:47:02;11.30;;;6.30;;
55732;SDS011;41637;52.364;9.910;2023-02-28T04:49:29;11.30;;;6.00;;
55732;SDS011;41637;52.364;9.910;2023-02-28T04:51:56;8.70;;;4.90;;
55732;SDS011;41637;52.364;9.910;2023-02-28T04:54:23;9.00;;;5.30;;
55732;SDS011;41637;52.364;9.910;2023-02-28T04:56:50;10.70;;;5.10;;
55732;SDS011;41637;52.364;9.910;2023-02-28T04:59:18;10.30;;;5.60;;
55732;SDS011;41637;52.364;9.910;2023-02-28T05:01:46;11.80;;;6.70;;
55732;SDS011;41637;52.364;9.910;2023-02-28T05:04:14;9.30;;;5.90;;
55732;SDS011;41637;52.364;9.910;2023-02-28T05:06:41;8.00;;;5.60;;
55732;SDS011;41637;52.364;9.910;2023-02-28T05:09:08;10.80;;;6.30;;
55732;SDS011;41637;52.364;9.910;2023-02-28T05:11:37;11.30;;;6.50;;
55732;SDS011;41637;52.364;9.910;2023-02-28T05:14:06;11.70;;;6.00;;
55732;SDS011;41637;52.364;9.910;2023-02-28T05:16:37;8.80;;;6.30;;
55732;SDS011;41637;52.364;9.910;2023-02-28T05:19:04;9.50;;;6.40;;
55732;SDS011;41637;52.364;9.910;2023-02-28T05:21:33;10.00;;;6.40;;
55732;SDS011;41637;52.364;9.910;2023-02-28T05:24:02;9.50;;;6.40;;
55732;SDS011;41637;52.364;9.910;2023-02-28T05:26:40;9.70;;;6.30;;
55732;SDS011;41637;52.364;9.910;2023-02-28T05:29:08;11.50;;;6.70;;
55732;SDS011;41637;52.364;9.910;2023-02-28T05:31:36;12.20;;;7.10;;
55732;SDS011;41637;52.364;9.910;2023-02-28T05:34:04;13.70;;;7.10;;
55732;SDS011;41637;52.364;9.910;2023-02-28T05:36:31;9.90;;;6.80;;
55732;SDS011;41637;52.364;9.910;2023-02-28T05:38:59;18.20;;;9.80;;
55732;SDS011;41637;52.364;9.910;2023-02-28T05:41:26;17.50;;;9.70;;
55732;SDS011;41637;52.364;9.910;2023-02-28T05:43:53;16.10;;;8.90;;
55732;SDS011;41637;52.364;9.910;2023-02-28T05:46:21;12.90;;;7.30;;
55732;SDS011;41637;52.364;9.910;2023-02-28T05:48:47;11.50;;;7.60;;
55732;SDS011;41637;52.364;9.910;2023-02-28T05:51:14;12.10;;;7.20;;
55732;SDS011;41637;52.364;9.910;2023-02-28T05:53:42;14.20;;;7.70;;
55732;SDS011;41637;52.364;9.910;2023-02-28T05:56:09;12.60;;;7.70;;
55732;SDS011;41637;52.364;9.910;2023-02-28T05:58:36;15.10;;;8.40;;
55732;SDS011;41637;52.364;9.910;2023-02-28T06:01:19;15.30;;;7.80;;
55732;SDS011;41637;52.364;9.910;2023-02-28T06:03:52;13.90;;;7.60;;
55732;SDS011;41637;52.364;9.910;2023-02-28T06:06:19;11.00;;;6.90;;
55732;SDS011;41637;52.364;9.910;2023-02-28T06:08:46;12.80;;;6.80;;
55732;SDS011;41637;52.364;9.910;2023-02-28T06:11:13;11.80;;;7.40;;
55732;SDS011;41637;52.364;9.910;2023-02-28T06:13:40;17.60;;;9.80;;
55732;SDS011;41637;52.364;9.910;2023-02-28T06:16:08;13.00;;;7.00;;
55732;SDS011;41637;52.364;9.910;2023-02-28T06:18:37;12.00;;;7.90;;
55732;SDS011;41637;52.364;9.910;2023-02-28T06:21:04;14.30;;;8.60;;
55732;SDS011;41637;52.364;9.910;2023-02-28T06:23:31;12.90;;;7.90;;
55732;SDS011;41637;52.364;9.910;2023-02-28T06:26:00;12.30;;;7.30;;
55732;SDS011;41637;52.364;9.910;2023-02-28T06:28:28;12.60;;;7.30;;
55732;SDS011;41637;52.364;9.910;2023-02-28T06:30:55;11.50;;;7.10;;
55732;SDS011;41637;52.364;9.910;2023-02-28T06:33:22;17.70;;;7.80;;
55732;SDS011;41637;52.364;9.910;2023-02-28T06:35:50;12.40;;;8.70;;
55732;SDS011;41637;52.364;9.910;2023-02-28T06:38:18;13.20;;;8.60;;
55732;SDS011;41637;52.364;9.910;2023-02-28T06:40:52;13.30;;;8.30;;
55732;SDS011;41637;52.364;9.910;2023-02-28T06:43:23;14.50;;;8.60;;
55732;SDS011;41637;52.364;9.910;2023-02-28T06:45:54;13.40;;;8.20;;
55732;SDS011;41637;52.364;9.910;2023-02-28T06:48:21;14.20;;;9.20;;
55732;SDS011;41637;52.364;9.910;2023-02-28T06:50:49;16.10;;;8.40;;
55732;SDS011;41637;52.364;9.910;2023-02-28T06:53:16;14.10;;;8.80;;
55732;SDS011;41637;52.364;9.910;2023-02-28T06:55:43;12.70;;;8.30;;
55732;SDS011;41637;52.364;9.910;2023-02-28T06:58:11;14.00;;;8.30;;
55732;SDS011;41637;52.364;9.910;2023-02-28T07:00:41;12.80;;;7.90;;
55732;SDS011;41637;52.364;9.910;2023-02-28T07:03:11;13.60;;;7.80;;
55732;SDS011;41637;52.364;9.910;2023-02-28T07:05:39;11.90;;;7.90;;
55732;SDS011;41637;52.364;9.910;2023-02-28T07:08:08;14.30;;;9.00;;
55732;SDS011;41637;52.364;9.910;2023-02-28T07:10:38;14.90;;;8.20;;
55732;SDS011;41637;52.364;9.910;2023-02-28T07:13:06;11.10;;;6.70;;
55732;SDS011;41637;52.364;9.910;2023-02-28T07:15:35;12.80;;;6.80;;
55732;SDS011;41637;52.364;9.910;2023-02-28T07:18:06;11.50;;;6.90;;
55732;SDS011;41637;52.364;9.910;2023-02-28T07:20:33;10.50;;;6.70;;
55732;SDS011;41637;52.364;9.910;2023-02-28T07:23:01;12.20;;;7.10;;
55732;SDS011;41637;52.364;9.910;2023-02-28T07:25:28;13.60;;;7.50;;
55732;SDS011;41637;52.364;9.910;2023-02-28T07:27:55;11.50;;;7.50;;
55732;SDS011;41637;52.364;9.910;2023-02-28T07:30:22;12.60;;;7.60;;
55732;SDS011;41637;52.364;9.910;2023-02-28T07:32:49;13.10;;;7.80;;
55732;SDS011;41637;52.364;9.910;2023-02-28T07:35:17;11.40;;;7.90;;
55732;SDS011;41637;52.364;9.910;2023-02-28T07:37:45;12.50;;;7.40;;
55732;SDS011;41637;52.364;9.910;2023-02-28T07:40:13;11.60;;;7.20;;
55732;SDS011;41637;52.364;9.910;2023-02-28T07:42:40;10.40;;;7.10;;
55732;SDS011;41637;52.364;9.910;2023-02-28T07:45:08;10.80;;;6.90;;
55732;SDS011;41637;52.364;9.910;2023-02-28T07:47:38;11.50;;;7.20;;
55732;SDS011;41637;52.364;9.910;2023-02-28T07:50:06;11.80;;;8.00;;
55732;SDS011;41637;52.364;9.910;2023-02-28T07:52:34;13.10;;;7.20;;
55732;SDS011;41637;52.364;9.910;2023-02-28T07:55:02;9.90;;;6.60;;
55732;SDS011;41637;52.364;9.910;2023-02-28T07:57:30;9.80;;;6.50;;
55732;SDS011;41637;52.364;9.910;2023-02-28T08:00:01;13.00;;;7.00;;
55732;SDS011;41637;52.364;9.910;2023-02-28T08:02:29;10.80;;;6.30;;
55732;SDS011;41637;52.364;9.910;2023-02-28T08:04:56;10.70;;;6.30;;
55732;SDS011;41637;52.364;9.910;2023-02-28T08:07:23;9.70;;;6.50;;
55732;SDS011;41637;52.364;9.910;2023-02-28T08:09:50;11.00;;;6.10;;
55732;SDS011;41637;52.364;9.910;2023-02-28T08:12:18;9.90;;;5.90;;
55732;SDS011;41637;52.364;9.910;2023-02-28T08:14:45;10.70;;;5.90;;
55732;SDS011;41637;52.364;9.910;2023-02-28T08:17:12;9.60;;;6.00;;
55732;SDS011;41637;52.364;9.910;2023-02-28T08:19:39;9.00;;;5.60;;
55732;SDS011;41637;52.364;9.910;2023-02-28T08:22:06;9.80;;;6.10;;
55732;SDS011;41637;52.364;9.910;2023-02-28T08:24:33;9.50;;;5.40;;
55732;SDS011;41637;52.364;9.910;2023-02-28T08:27:00;9.90;;;5.50;;
55732;SDS011;41637;52.364;9.910;2023-02-28T08:29:30;9.20;;;5.40;;
55732;SDS011;41637;52.364;9.910;2023-02-28T08:31:58;10.30;;;5.10;;
55732;SDS011;41637;52.364;9.910;2023-02-28T08:34:25;9.00;;;5.30;;
55732;SDS011;41637;52.364;9.910;2023-02-28T08:36:52;9.10;;;5.00;;
55732;SDS011;41637;52.364;9.910;2023-02-28T08:39:20;7.80;;;4.60;;
55732;SDS011;41637;52.364;9.910;2023-02-28T08:41:47;9.00;;;4.70;;
55732;SDS011;41637;52.364;9.910;2023-02-28T08:44:24;6.40;;;4.00;;
55732;SDS011;41637;52.364;9.910;2023-02-28T08:46:51;6.20;;;4.00;;
55732;SDS011;41637;52.364;9.910;2023-02-28T08:49:18;5.50;;;3.70;;
55732;SDS011;41637;52.364;9.910;2023-02-28T08:51:45;8.20;;;3.80;;
55732;SDS011;41637;52.364;9.910;2023-02-28T08:54:12;6.90;;;3.60;;
55732;SDS011;41637;52.364;9.910;2023-02-28T08:56:42;6.40;;;3.60;;
55732;SDS011;41637;52.364;9.910;2023-02-28T09:02:56;4.90;;;3.10;;
55732;SDS011;41637;52.364;9.910;2023-02-28T09:05:23;6.30;;;3.20;;
55732;SDS011;41637;52.364;9.910;2023-02-28T09:07:50;4.00;;;2.30;;
55732;SDS011;41637;52.364;9.910;2023-02-28T09:10:17;4.50;;;2.30;;
55732;SDS011;41637;52.364;9.910;2023-02-28T09:12:44;5.20;;;2.80;;
55732;SDS011;41637;52.364;9.910;2023-02-28T09:15:13;4.80;;;2.20;;
55732;SDS011;41637;52.364;9.910;2023-02-28T09:17:40;4.60;;;2.40;;
55732;SDS011;41637;52.364;9.910;2023-02-28T09:20:09;3.70;;;2.20;;
55732;SDS011;41637;52.364;9.910;2023-02-28T09:22:37;3.50;;;2.10;;
55732;SDS011;41637;52.364;9.910;2023-02-28T09:25:04;4.80;;;2.50;;
55732;SDS011;41637;52.364;9.910;2023-02-28T09:27:31;4.40;;;2.30;;
55732;SDS011;41637;52.364;9.910;2023-02-28T09:29:58;4.10;;;2.40;;
55732;SDS011;41637;52.364;9.910;2023-02-28T09:32:25;3.40;;;2.20;;
55732;SDS011;41637;52.364;9.910;2023-02-28T09:34:52;4.80;;;1.90;;
55732;SDS011;41637;52.364;9.910;2023-02-28T09:37:19;3.20;;;1.90;;
55732;SDS011;41637;52.364;9.910;2023-02-28T09:39:46;3.60;;;2.00;;
55732;SDS011;41637;52.364;9.910;2023-02-28T09:42:30;3.80;;;2.10;;
55732;SDS011;41637;52.364;9.910;2023-02-28T09:45:00;2.70;;;1.70;;
55732;SDS011;41637;52.364;9.910;2023-02-28T09:47:32;3.20;;;1.70;;
55732;SDS011;41637;52.364;9.910;2023-02-28T09:50:06;3.40;;;2.00;;
55732;SDS011;41637;52.364;9.910;2023-02-28T09:52:43;4.00;;;1.90;;
55732;SDS011;41637;52.364;9.910;2023-02-28T09:57:46;5.30;;;1.50;;
55732;SDS011;41637;52.364;9.910;2023-02-28T10:00:15;3.30;;;1.80;;
55732;SDS011;41637;52.364;9.910;2023-02-28T10:02:50;2.90;;;1.60;;
55732;SDS011;41637;52.364;9.910;2023-02-28T10:05:25;4.80;;;1.70;;
55732;SDS011;41637;52.364;9.910;2023-02-28T10:08:10;2.90;;;1.50;;
55732;SDS011;41637;52.364;9.910;2023-02-28T10:10:42;3.40;;;1.50;;
55732;SDS011;41637;52.364;9.910;2023-02-28T10:13:21;2.10;;;1.30;;
55732;SDS011;41637;52.364;9.910;2023-02-28T10:16:16;2.70;;;1.20;;
55732;SDS011;41637;52.364;9.910;2023-02-28T10:18:51;4.00;;;1.30;;
55732;SDS011;41637;52.364;9.910;2023-02-28T10:21:28;3.20;;;1.10;;
55732;SDS011;41637;52.364;9.910;2023-02-28T10:24:20;3.70;;;1.40;;
55732;SDS011;41637;52.364;9.910;2023-02-28T10:26:55;3.50;;;1.40;;
55732;SDS011;41637;52.364;9.910;2023-02-28T10:29:26;2.50;;;1.20;;
55732;SDS011;41637;52.364;9.910;2023-02-28T10:31:58;1.90;;;1.10;;
55732;SDS011;41637;52.364;9.910;2023-02-28T10:34:27;3.20;;;1.10;;
55732;SDS011;41637;52.364;9.910;2023-02-28T10:36:54;3.60;;;1.10;;
55732;SDS011;41637;52.364;9.910;2023-02-28T10:39:41;2.10;;;1.10;;
55732;SDS011;41637;52.364;9.910;2023-02-28T10:42:24;2.50;;;1.00;;
55732;SDS011;41637;52.364;9.910;2023-02-28T10:45:09;3.00;;;1.20;;
55732;SDS011;41637;52.364;9.910;2023-02-28T10:50:41;3.40;;;1.20;;
55732;SDS011;41637;52.364;9.910;2023-02-28T11:01:43;2.40;;;1.00;;
55732;SDS011;41637;52.364;9.910;2023-02-28T11:06:59;2.30;;;1.10;;
55732;SDS011;41637;52.364;9.910;2023-02-28T11:09:29;2.70;;;1.00;;
55732;SDS011;41637;52.364;9.910;2023-02-28T11:12:01;2.90;;;1.10;;
55732;SDS011;41637;52.364;9.910;2023-02-28T11:14:32;2.70;;;0.90;;
55732;SDS011;41637;52.364;9.910;2023-02-28T11:17:25;2.00;;;1.20;;
55732;SDS011;41637;52.364;9.910;2023-02-28T11:19:58;2.70;;;1.30;;
55732;SDS011;41637;52.364;9.910;2023-02-28T11:22:30;2.20;;;1.10;;
55732;SDS011;41637;52.364;9.910;2023-02-28T11:25:03;3.70;;;1.30;;
55732;SDS011;41637;52.364;9.910;2023-02-28T11:27:48;3.30;;;1.10;;
55732;SDS011;41637;52.364;9.910;2023-02-28T11:32:53;2.70;;;1.00;;
55732;SDS011;41637;52.364;9.910;2023-02-28T11:35:28;2.50;;;1.20;;
55732;SDS011;41637;52.364;9.910;2023-02-28T11:38:00;2.60;;;1.30;;
55732;SDS011;41637;52.364;9.910;2023-02-28T11:40:43;5.10;;;1.60;;
55732;SDS011;41637;52.364;9.910;2023-02-28T11:46:30;4.00;;;1.60;;
55732;SDS011;41637;52.364;9.910;2023-02-28T11:51:59;3.10;;;1.20;;
55732;SDS011;41637;52.364;9.910;2023-02-28T12:05:57;3.20;;;1.50;;
55732;SDS011;41637;52.364;9.910;2023-02-28T12:28:15;2.80;;;1.40;;
55732;SDS011;41637;52.364;9.910;2023-02-28T12:30:54;3.20;;;1.60;;
55732;SDS011;41637;52.364;9.910;2023-02-28T12:33:41;2.80;;;1.60;;
55732;SDS011;41637;52.364;9.910;2023-02-28T12:36:14;3.50;;;1.60;;
55732;SDS011;41637;52.364;9.910;2023-02-28T12:38:47;4.70;;;1.60;;
55732;SDS011;41637;52.364;9.910;2023-02-28T12:41:18;2.90;;;1.30;;
55732;SDS011;41637;52.364;9.910;2023-02-28T12:44:00;3.30;;;1.60;;
55732;SDS011;41637;52.364;9.910;2023-02-28T12:46:35;2.50;;;1.40;;
55732;SDS011;41637;52.364;9.910;2023-02-28T12:49:09;2.90;;;1.40;;
55732;SDS011;41637;52.364;9.910;2023-02-28T12:51:44;2.20;;;1.30;;
55732;SDS011;41637;52.364;9.910;2023-02-28T12:54:22;2.80;;;1.40;;
55732;SDS011;41637;52.364;9.910;2023-02-28T13:05:01;2.50;;;1.30;;
55732;SDS011;41637;52.364;9.910;2023-02-28T13:10:40;2.30;;;1.40;;
55732;SDS011;41637;52.364;9.910;2023-02-28T13:13:14;2.80;;;1.60;;
55732;SDS011;41637;52.364;9.910;2023-02-28T13:16:03;2.50;;;1.30;;
55732;SDS011;41637;52.364;9.910;2023-02-28T13:18:42;4.00;;;1.40;;
55732;SDS011;41637;52.364;9.910;2023-02-28T13:21:26;3.10;;;1.60;;
55732;SDS011;41637;52.364;9.910;2023-02-28T13:23:57;2.70;;;1.70;;
55732;SDS011;41637;52.364;9.910;2023-02-28T13:34:34;2.50;;;1.50;;
55732;SDS011;41637;52.364;9.910;2023-02-28T13:39:52;2.60;;;1.40;;
55732;SDS011;41637;52.364;9.910;2023-02-28T13:50:21;2.30;;;1.30;;
55732;SDS011;41637;52.364;9.910;2023-02-28T13:55:25;2.20;;;1.40;;
55732;SDS011;41637;52.364;9.910;2023-02-28T14:06:31;2.50;;;1.50;;
55732;SDS011;41637;52.364;9.910;2023-02-28T14:09:50;2.80;;;1.30;;
55732;SDS011;41637;52.364;9.910;2023-02-28T14:11:53;2.40;;;1.30;;
55732;SDS011;41637;52.364;9.910;2023-02-28T14:17:06;2.90;;;1.40;;
55732;SDS011;41637;52.364;9.910;2023-02-28T14:19:38;2.20;;;1.40;;
55732;SDS011;41637;52.364;9.910;2023-02-28T14:24:46;2.40;;;1.30;;
55732;SDS011;41637;52.364;9.910;2023-02-28T14:33:19;2.60;;;1.50;;
55732;SDS011;41637;52.364;9.910;2023-02-28T14:39:05;2.90;;;1.40;;
55732;SDS011;41637;52.364;9.910;2023-02-28T14:41:38;2.50;;;1.40;;
55732;SDS011;41637;52.364;9.910;2023-02-28T14:44:19;2.50;;;1.30;;
55732;SDS011;41637;52.364;9.910;2023-02-28T14:46:52;3.50;;;1.70;;
55732;SDS011;41637;52.364;9.910;2023-02-28T14:54:46;2.80;;;1.60;;
55732;SDS011;41637;52.364;9.910;2023-02-28T14:57:22;3.00;;;1.40;;
55732;SDS011;41637;52.364;9.910;2023-02-28T15:00:12;3.20;;;1.40;;
55732;SDS011;41637;52.364;9.910;2023-02-28T15:02:41;3.90;;;1.30;;
55732;SDS011;41637;52.364;9.910;2023-02-28T15:07:39;2.30;;;1.30;;
55732;SDS011;41637;52.364;9.910;2023-02-28T15:10:17;2.60;;;1.30;;
55732;SDS011;41637;52.364;9.910;2023-02-28T15:12:46;3.20;;;1.40;;
55732;SDS011;41637;52.364;9.910;2023-02-28T15:15:17;2.20;;;1.20;;
55732;SDS011;41637;52.364;9.910;2023-02-28T15:17:45;3.00;;;1.50;;
55732;SDS011;41637;52.364;9.910;2023-02-28T15:20:16;2.40;;;1.20;;
55732;SDS011;41637;52.364;9.910;2023-02-28T15:22:44;2.40;;;1.40;;
55732;SDS011;41637;52.364;9.910;2023-02-28T15:25:15;3.50;;;1.50;;
55732;SDS011;41637;52.364;9.910;2023-02-28T15:27:47;3.40;;;1.50;;
55732;SDS011;41637;52.364;9.910;2023-02-28T15:30:18;3.50;;;1.40;;
55732;SDS011;41637;52.364;9.910;2023-02-28T15:33:15;3.80;;;1.90;;
55732;SDS011;41637;52.364;9.910;2023-02-28T15:35:46;4.30;;;1.60;;
55732;SDS011;41637;52.364;9.910;2023-02-28T15:38:18;2.10;;;1.40;;
55732;SDS011;41637;52.364;9.910;2023-02-28T15:40:53;3.60;;;1.40;;
55732;SDS011;41637;52.364;9.910;2023-02-28T15:43:31;3.10;;;1.30;;
55732;SDS011;41637;52.364;9.910;2023-02-28T15:45:59;2.60;;;1.40;;
55732;SDS011;41637;52.364;9.910;2023-02-28T15:51:07;2.80;;;1.50;;
55732;SDS011;41637;52.364;9.910;2023-02-28T15:53:56;3.10;;;1.70;;
55732;SDS011;41637;52.364;9.910;2023-02-28T15:56:29;4.00;;;1.90;;
55732;SDS011;41637;52.364;9.910;2023-02-28T15:59:02;3.10;;;1.70;;
55732;SDS011;41637;52.364;9.910;2023-02-28T16:01:35;2.20;;;1.50;;
55732;SDS011;41637;52.364;9.910;2023-02-28T16:04:11;3.30;;;1.80;;
55732;SDS011;41637;52.364;9.910;2023-02-28T16:06:44;3.10;;;1.60;;
55732;SDS011;41637;52.364;9.910;2023-02-28T16:09:31;4.00;;;1.90;;
55732;SDS011;41637;52.364;9.910;2023-02-28T16:12:00;3.60;;;2.40;;
55732;SDS011;41637;52.364;9.910;2023-02-28T16:14:31;4.60;;;2.80;;
55732;SDS011;41637;52.364;9.910;2023-02-28T16:17:02;2.80;;;1.90;;
55732;SDS011;41637;52.364;9.910;2023-02-28T16:19:30;3.60;;;1.70;;
55732;SDS011;41637;52.364;9.910;2023-02-28T16:22:00;3.90;;;1.80;;
55732;SDS011;41637;52.364;9.910;2023-02-28T16:24:27;3.50;;;1.90;;
55732;SDS011;41637;52.364;9.910;2023-02-28T16:26:56;3.40;;;1.90;;
55732;SDS011;41637;52.364;9.910;2023-02-28T16:29:27;4.60;;;2.20;;
55732;SDS011;41637;52.364;9.910;2023-02-28T16:31:58;5.20;;;1.90;;
55732;SDS011;41637;52.364;9.910;2023-02-28T16:34:26;3.90;;;1.80;;
55732;SDS011;41637;52.364;9.910;2023-02-28T16:36:53;4.30;;;2.60;;
55732;SDS011;41637;52.364;9.910;2023-02-28T16:39:20;3.90;;;2.70;;
55732;SDS011;41637;52.364;9.910;2023-02-28T16:41:48;4.30;;;2.30;;
55732;SDS011;41637;52.364;9.910;2023-02-28T16:44:29;5.30;;;2.30;;
55732;SDS011;41637;52.364;9.910;2023-02-28T16:46:59;4.00;;;2.10;;
55732;SDS011;41637;52.364;9.910;2023-02-28T16:49:26;3.60;;;2.20;;
55732;SDS011;41637;52.364;9.910;2023-02-28T16:51:53;4.00;;;2.20;;
55732;SDS011;41637;52.364;9.910;2023-02-28T16:54:20;4.10;;;2.20;;
55732;SDS011;41637;52.364;9.910;2023-02-28T16:56:47;4.60;;;2.20;;
55732;SDS011;41637;52.364;9.910;2023-02-28T16:59:18;4.20;;;2.40;;
55732;SDS011;41637;52.364;9.910;2023-02-28T17:01:47;4.20;;;3.00;;
55732;SDS011;41637;52.364;9.910;2023-02-28T17:04:15;5.00;;;3.30;;
55732;SDS011;41637;52.364;9.910;2023-02-28T17:06:44;11.60;;;6.60;;
55732;SDS011;41637;52.364;9.910;2023-02-28T17:09:20;17.30;;;11.20;;
55732;SDS011;41637;52.364;9.910;2023-02-28T17:12:06;9.20;;;5.20;;
55732;SDS011;41637;52.364;9.910;2023-02-28T17:14:34;7.70;;;4.90;;
55732;SDS011;41637;52.364;9.910;2023-02-28T17:17:01;6.50;;;3.70;;
55732;SDS011;41637;52.364;9.910;2023-02-28T17:19:28;7.20;;;4.00;;
55732;SDS011;41637;52.364;9.910;2023-02-28T17:21:55;8.40;;;3.40;;
55732;SDS011;41637;52.364;9.910;2023-02-28T17:24:23;5.40;;;3.10;;
55732;SDS011;41637;52.364;9.910;2023-02-28T17:26:56;6.40;;;3.00;;
55732;SDS011;41637;52.364;9.910;2023-02-28T17:29:24;6.30;;;3.50;;
55732;SDS011;41637;52.364;9.910;2023-02-28T17:31:51;6.00;;;3.50;;
55732;SDS011;41637;52.364;9.910;2023-02-28T17:34:18;8.10;;;4.20;;
55732;SDS011;41637;52.364;9.910;2023-02-28T17:36:46;7.90;;;4.10;;
55732;SDS011;41637;52.364;9.910;2023-02-28T17:39:14;6.70;;;4.10;;
55732;SDS011;41637;52.364;9.910;2023-02-28T17:41:46;7.30;;;4.50;;
55732;SDS011;41637;52.364;9.910;2023-02-28T17:44:13;7.80;;;4.30;;
55732;SDS011;41637;52.364;9.910;2023-02-28T17:46:40;6.90;;;4.00;;
55732;SDS011;41637;52.364;9.910;2023-02-28T17:49:08;7.10;;;4.00;;
55732;SDS011;41637;52.364;9.910;2023-02-28T17:51:36;6.60;;;3.80;;
55732;SDS011;41637;52.364;9.910;2023-02-28T17:54:03;7.20;;;4.20;;